SBPP/PMG METAR and TAF weather

Enter ICAO airport designator
Station Type Date Time Source
SBPP METAR 2021/04/16 21:00 UTC NOAA

SBPP 162100Z 36004KT CAVOK 24/18 Q1013


Station Type Date Time Source
SBPP Decoded METAR 2021/04/16 21:00 UTC NOAA

Ponta Pora Intl , Brazil (SBPP) 22-33S 055-42W
Apr 16, 2021 - 05:00 PM EDT / 2021.04.16 2100 UTC
Wind: from the N (360 degrees) at 5 MPH (4 KT):0
Visibility: greater than 7 mile(s):0
Temperature: 75 F (24 C)
Dew Point: 64 F (18 C)
Relative Humidity: 69%
Pressure (altimeter): 29.91 in. Hg (1013 hPa)
ob: SBPP 162100Z 36004KT CAVOK 24/18 Q1013
cycle: 21

Station Type Date Time Source
SBPP TAF 2021/04/17 06:18 UTC NOAA

TAF SBPP 170100Z 1706/1806 01008KT 9999 FEW015 TN17/1709Z TX30/1715Z
BECMG 1713/1715 34005KT 9999 SCT020
TEMPO 1715/1721 21008KT TSRA SCT020 FEW025CB
BECMG 1723/1801 00000KT SCT015
RMK PGF

Example: see airport list